createdAt,value
2023-03-15T00:00:12.628Z,8.77
2023-03-15T00:02:41.852Z,7.63
2023-03-15T00:05:14.254Z,9.57
2023-03-15T00:07:42.615Z,6.43
2023-03-15T00:10:13.512Z,7.25
2023-03-15T00:12:43.340Z,5.97
2023-03-15T00:15:14.709Z,6.35
2023-03-15T00:17:45.152Z,9.10
2023-03-15T00:20:14.948Z,6.63
2023-03-15T00:22:43.366Z,10.38
2023-03-15T00:25:13.476Z,8.18
2023-03-15T00:27:41.762Z,7.75
2023-03-15T00:30:11.475Z,10.18
2023-03-15T00:32:39.903Z,7.82
2023-03-15T00:35:08.886Z,7.43
2023-03-15T00:37:37.756Z,8.35
2023-03-15T00:40:07.537Z,8.63
2023-03-15T00:42:37.371Z,6.88
2023-03-15T00:45:06.534Z,6.75
2023-03-15T00:47:34.893Z,6.95
2023-03-15T00:50:03.174Z,6.15
2023-03-15T00:52:37.278Z,9.13
2023-03-15T00:55:06.481Z,7.25
2023-03-15T00:57:36.673Z,8.35
2023-03-15T01:00:06.259Z,7.28
2023-03-15T01:02:34.861Z,9.30
2023-03-15T01:05:03.514Z,5.88
2023-03-15T01:07:33.628Z,7.45
2023-03-15T01:10:02.630Z,7.53
2023-03-15T01:12:32.693Z,8.70
2023-03-15T01:15:04.233Z,8.65
2023-03-15T01:17:32.839Z,11.50
2023-03-15T01:20:01.358Z,11.88
2023-03-15T01:22:29.672Z,6.20
2023-03-15T01:24:58.057Z,5.60
2023-03-15T01:27:26.362Z,10.35
2023-03-15T01:29:55.124Z,9.88
2023-03-15T01:32:24.817Z,5.80
2023-03-15T01:34:53.115Z,10.05
2023-03-15T01:37:24.824Z,7.50
2023-03-15T01:39:53.379Z,10.60
2023-03-15T01:42:21.815Z,8.00
2023-03-15T01:44:56.002Z,6.75
2023-03-15T01:47:27.192Z,10.73
2023-03-15T01:50:03.104Z,14.35
2023-03-15T01:52:35.800Z,11.23
2023-03-15T01:55:10.330Z,11.40
2023-03-15T01:57:42.963Z,10.35
2023-03-15T02:00:13.991Z,7.65
2023-03-15T02:02:48.771Z,4.75
2023-03-15T02:05:21.790Z,7.50
2023-03-15T02:07:51.246Z,9.30
2023-03-15T02:10:25.315Z,6.30
2023-03-15T02:12:54.171Z,6.38
2023-03-15T02:15:22.451Z,8.55
2023-03-15T02:17:52.648Z,8.23
2023-03-15T02:20:32.840Z,12.27
2023-03-15T02:23:04.090Z,7.45
2023-03-15T02:25:41.054Z,6.10
2023-03-15T02:28:13.519Z,11.00
2023-03-15T02:30:42.680Z,11.23
2023-03-15T02:33:17.522Z,10.10
2023-03-15T02:35:45.810Z,9.85
2023-03-15T02:38:14.219Z,11.25
2023-03-15T02:40:42.787Z,6.43
2023-03-15T02:43:17.414Z,10.02
2023-03-15T02:45:47.293Z,9.82
2023-03-15T02:48:15.744Z,12.40
2023-03-15T02:50:44.263Z,10.18
2023-03-15T02:53:13.151Z,9.25
2023-03-15T02:55:41.475Z,14.95
2023-03-15T02:58:10.059Z,5.88
2023-03-15T03:00:39.806Z,8.27
2023-03-15T03:03:09.066Z,9.35
2023-03-15T03:05:37.380Z,6.90
2023-03-15T03:08:06.052Z,6.85
2023-03-15T03:10:34.310Z,9.10
2023-03-15T03:13:02.699Z,9.77
2023-03-15T03:15:31.414Z,9.20
2023-03-15T03:18:01.126Z,9.18
2023-03-15T03:20:29.569Z,10.98
2023-03-15T03:22:57.805Z,11.57
2023-03-15T03:25:27.449Z,8.15
2023-03-15T03:27:57.542Z,8.30
2023-03-15T03:30:25.916Z,14.15
2023-03-15T03:32:54.236Z,10.40
2023-03-15T03:35:23.994Z,7.53
2023-03-15T03:37:53.677Z,9.63
2023-03-15T03:40:22.136Z,9.52
2023-03-15T03:42:50.762Z,7.68
2023-03-15T03:45:19.267Z,6.80
2023-03-15T03:47:48.346Z,8.55
2023-03-15T03:50:16.778Z,6.53
2023-03-15T03:52:46.562Z,11.15
2023-03-15T03:55:14.932Z,9.00
2023-03-15T03:57:44.570Z,7.78
2023-03-15T04:00:15.621Z,10.63
2023-03-15T04:02:44.282Z,8.07
2023-03-15T04:05:13.363Z,6.95
2023-03-15T04:07:41.732Z,7.32
2023-03-15T04:10:14.929Z,7.05
2023-03-15T04:12:44.462Z,8.85
2023-03-15T04:15:13.293Z,7.10
2023-03-15T04:17:41.904Z,7.03
2023-03-15T04:20:13.092Z,5.45
2023-03-15T04:22:41.442Z,7.32
2023-03-15T04:25:11.684Z,7.55
2023-03-15T04:27:39.977Z,9.60
2023-03-15T04:30:09.166Z,8.90
2023-03-15T04:32:37.668Z,8.70
2023-03-15T04:35:06.718Z,11.77
2023-03-15T04:37:35.138Z,11.35
2023-03-15T04:40:05.081Z,8.98
2023-03-15T04:42:34.827Z,8.50
2023-03-15T04:45:04.400Z,10.35
2023-03-15T04:47:32.690Z,8.77
2023-03-15T04:50:01.284Z,11.15
2023-03-15T04:52:29.657Z,8.25
2023-03-15T04:54:57.914Z,9.60
2023-03-15T04:57:26.391Z,6.10
2023-03-15T04:59:57.154Z,6.50
2023-03-15T05:02:25.570Z,10.30
2023-03-15T05:04:54.129Z,5.50
2023-03-15T05:07:23.090Z,10.10
2023-03-15T05:09:51.452Z,8.48
2023-03-15T05:12:20.085Z,9.60
2023-03-15T05:14:48.440Z,4.07
2023-03-15T05:17:18.297Z,9.32
2023-03-15T05:19:46.828Z,7.07
2023-03-15T05:22:15.169Z,11.40
2023-03-15T05:24:43.877Z,12.35
2023-03-15T05:27:13.794Z,7.60
2023-03-15T05:29:42.105Z,10.45
2023-03-15T05:32:11.148Z,8.55
2023-03-15T05:34:40.954Z,9.05
2023-03-15T05:37:09.529Z,9.02
2023-03-15T05:39:37.849Z,7.63
2023-03-15T05:42:06.763Z,7.15
2023-03-15T05:44:35.012Z,7.10
2023-03-15T05:47:03.314Z,10.95
2023-03-15T05:49:31.701Z,6.78
2023-03-15T05:52:01.476Z,8.38
2023-03-15T05:54:29.728Z,13.88
2023-03-15T05:56:58.676Z,6.22
2023-03-15T05:59:26.959Z,11.10
2023-03-15T06:01:55.351Z,13.48
2023-03-15T06:04:23.928Z,9.45
2023-03-15T06:06:52.380Z,6.88
2023-03-15T06:09:22.243Z,5.95
2023-03-15T06:11:51.038Z,8.57
2023-03-15T06:14:19.483Z,6.30
2023-03-15T06:16:47.808Z,4.03
2023-03-15T06:19:16.135Z,4.03
2023-03-15T06:21:44.459Z,3.28
2023-03-15T06:24:13.095Z,4.53
2023-03-15T06:26:42.988Z,3.00
2023-03-15T06:29:11.910Z,4.75
2023-03-15T06:31:40.502Z,2.25
2023-03-15T06:34:09.908Z,2.50
2023-03-15T06:36:39.229Z,8.50
2023-03-15T06:39:08.942Z,3.03
2023-03-15T06:41:37.875Z,2.30
2023-03-15T06:44:08.318Z,2.65
2023-03-15T06:46:37.455Z,1.73
2023-03-15T06:49:25.988Z,2.10
2023-03-15T06:51:55.265Z,1.67
2023-03-15T06:54:23.579Z,1.75
2023-03-15T06:56:51.997Z,2.95
2023-03-15T06:59:21.769Z,2.35
2023-03-15T07:01:50.225Z,1.50
2023-03-15T07:04:18.574Z,1.88
2023-03-15T07:06:47.214Z,2.72
2023-03-15T07:09:15.588Z,0.82
2023-03-15T07:11:43.955Z,0.73
2023-03-15T07:14:12.343Z,0.98
2023-03-15T07:16:42.102Z,1.42
2023-03-15T07:19:10.483Z,0.90
2023-03-15T07:21:40.103Z,0.60
2023-03-15T07:24:09.246Z,0.45
2023-03-15T07:26:38.044Z,1.13
2023-03-15T07:29:07.128Z,0.77
2023-03-15T07:31:35.948Z,4.20
2023-03-15T07:34:06.421Z,4.00
2023-03-15T07:36:35.473Z,0.75
2023-03-15T07:39:05.188Z,1.88
2023-03-15T07:41:34.254Z,3.35
2023-03-15T07:44:03.719Z,2.03
2023-03-15T07:46:32.534Z,0.70
2023-03-15T07:49:01.952Z,2.35
2023-03-15T07:51:32.518Z,0.50
2023-03-15T07:54:00.926Z,5.07
2023-03-15T07:56:29.305Z,6.70
2023-03-15T07:58:57.577Z,1.02
2023-03-15T08:01:25.948Z,1.15
2023-03-15T08:03:54.498Z,0.80
2023-03-15T08:06:22.974Z,2.03
2023-03-15T08:08:52.837Z,1.38
2023-03-15T08:11:21.159Z,0.43
2023-03-15T08:13:49.777Z,0.80
2023-03-15T08:16:18.075Z,0.43
2023-03-15T08:18:46.786Z,0.88
2023-03-15T08:21:15.103Z,0.95
2023-03-15T08:23:43.603Z,3.25
2023-03-15T08:26:13.352Z,4.03
2023-03-15T08:28:41.764Z,0.82
2023-03-15T08:31:10.811Z,1.88
2023-03-15T08:33:39.154Z,1.58
2023-03-15T08:36:07.662Z,1.33
2023-03-15T08:38:35.970Z,1.30
2023-03-15T08:41:05.180Z,0.70
2023-03-15T08:43:34.957Z,1.85
2023-03-15T08:46:03.407Z,0.75
2023-03-15T08:48:32.485Z,0.90
2023-03-15T08:51:04.301Z,1.45
2023-03-15T08:53:33.081Z,0.95
2023-03-15T08:56:01.781Z,1.75
2023-03-15T08:58:30.315Z,1.20
2023-03-15T09:01:00.143Z,1.23
2023-03-15T09:03:28.599Z,1.02
2023-03-15T09:05:58.492Z,1.27
2023-03-15T09:08:27.774Z,0.43
2023-03-15T09:10:57.182Z,0.55
2023-03-15T09:13:26.263Z,0.80
2023-03-15T09:15:55.689Z,0.50
2023-03-15T09:18:26.046Z,0.50
2023-03-15T09:20:54.291Z,0.55
2023-03-15T09:23:22.968Z,1.02
2023-03-15T09:25:51.628Z,0.65
2023-03-15T09:28:19.997Z,1.50
2023-03-15T09:30:48.680Z,1.65
2023-03-15T09:33:17.091Z,1.13
2023-03-15T09:35:47.019Z,1.48
2023-03-15T09:38:16.200Z,1.10
2023-03-15T09:40:46.315Z,0.68
2023-03-15T09:43:37.110Z,0.45
2023-03-15T09:46:20.185Z,1.23
2023-03-15T09:48:56.245Z,1.37
2023-03-15T09:51:38.631Z,1.05
2023-03-15T09:54:13.102Z,1.08
2023-03-15T09:56:47.597Z,1.55
2023-03-15T09:59:23.119Z,0.52
2023-03-15T10:01:55.685Z,0.70
2023-03-15T10:04:29.304Z,0.50
2023-03-15T10:09:34.822Z,0.75
2023-03-15T10:12:11.030Z,0.40
2023-03-15T10:15:07.166Z,0.40
2023-03-15T10:17:43.562Z,0.90
2023-03-15T10:20:16.628Z,0.90
2023-03-15T10:22:54.026Z,0.95
2023-03-15T10:25:26.379Z,0.73
2023-03-15T10:27:57.755Z,0.22
2023-03-15T10:30:28.090Z,0.63
2023-03-15T10:33:01.202Z,2.13
2023-03-15T10:35:29.648Z,0.60
2023-03-15T10:38:02.837Z,1.25
2023-03-15T10:40:42.130Z,1.05
2023-03-15T10:43:22.103Z,1.08
2023-03-15T10:46:01.322Z,0.75
2023-03-15T10:48:31.355Z,0.85
2023-03-15T10:51:04.419Z,0.90
2023-03-15T10:53:34.209Z,1.10
2023-03-15T10:56:05.583Z,0.93
2023-03-15T10:58:42.154Z,1.25
2023-03-15T11:01:15.174Z,1.50
2023-03-15T11:03:44.840Z,1.10
2023-03-15T11:06:24.561Z,1.80
2023-03-15T11:08:55.504Z,1.40
2023-03-15T11:11:23.847Z,1.05
2023-03-15T11:14:01.705Z,0.98
2023-03-15T11:16:36.519Z,1.08
2023-03-15T11:19:13.750Z,1.25
2023-03-15T11:21:43.921Z,2.92
2023-03-15T11:24:26.255Z,0.95
2023-03-15T11:26:56.909Z,1.13
2023-03-15T11:29:28.230Z,0.95
2023-03-15T11:31:58.106Z,4.00
2023-03-15T11:34:36.744Z,1.08
2023-03-15T11:37:13.124Z,0.75
2023-03-15T11:39:46.852Z,0.73
2023-03-15T11:44:48.627Z,1.35
2023-03-15T11:47:26.736Z,1.33
2023-03-15T11:49:57.186Z,1.30
2023-03-15T11:52:28.417Z,0.88
2023-03-15T11:55:00.278Z,2.38
2023-03-15T11:57:41.527Z,0.70
2023-03-15T12:00:51.655Z,0.95
2023-03-15T12:03:40.219Z,2.28
2023-03-15T12:06:27.199Z,0.90
2023-03-15T12:08:57.003Z,1.23
2023-03-15T12:11:43.691Z,0.60
2023-03-15T12:14:29.071Z,0.75
2023-03-15T12:17:36.355Z,1.10
2023-03-15T12:20:15.163Z,1.23
2023-03-15T12:22:49.924Z,2.08
2023-03-15T12:25:23.675Z,1.10
2023-03-15T12:27:56.865Z,2.53
2023-03-15T12:30:32.142Z,1.25
2023-03-15T12:33:03.544Z,0.75
2023-03-15T12:35:39.815Z,1.40
2023-03-15T12:38:14.419Z,1.08
2023-03-15T12:40:54.917Z,0.73
2023-03-15T12:43:44.426Z,1.15
2023-03-15T12:46:45.951Z,1.00
2023-03-15T12:49:31.950Z,1.45
2023-03-15T12:52:02.817Z,1.30
2023-03-15T12:54:36.279Z,1.45
2023-03-15T12:57:05.992Z,3.45
2023-03-15T12:59:51.512Z,3.00
2023-03-15T13:02:42.860Z,3.53
2023-03-15T13:05:20.651Z,3.03
2023-03-15T13:08:09.279Z,6.82
2023-03-15T13:10:40.883Z,2.65
2023-03-15T13:13:27.172Z,2.90
2023-03-15T13:16:15.632Z,1.50
2023-03-15T13:18:54.408Z,3.05
2023-03-15T13:21:28.289Z,2.13
2023-03-15T13:24:00.376Z,3.00
2023-03-15T13:26:51.771Z,3.05
2023-03-15T13:29:27.846Z,3.10
2023-03-15T13:32:08.351Z,1.20
2023-03-15T13:34:37.494Z,1.73
2023-03-15T13:37:12.466Z,2.88
2023-03-15T13:39:40.932Z,0.98
2023-03-15T13:42:20.069Z,1.27
2023-03-15T13:44:55.928Z,1.00
2023-03-15T13:47:27.959Z,2.13
2023-03-15T13:49:58.627Z,1.75
2023-03-15T13:52:26.892Z,2.15
2023-03-15T13:54:55.657Z,2.50
2023-03-15T13:57:24.964Z,2.38
2023-03-15T13:59:57.927Z,3.85
2023-03-15T14:02:36.572Z,3.20
2023-03-15T14:05:10.992Z,2.05
2023-03-15T14:07:41.033Z,3.25
2023-03-15T14:10:22.753Z,1.50
2023-03-15T14:12:52.147Z,2.30
2023-03-15T14:15:22.944Z,4.03
2023-03-15T14:18:04.576Z,4.97
2023-03-15T14:20:39.894Z,3.25
2023-03-15T14:23:12.917Z,3.97
2023-03-15T14:25:42.291Z,3.55
2023-03-15T14:28:17.093Z,2.33
2023-03-15T14:30:53.965Z,4.75
2023-03-15T14:33:33.481Z,3.72
2023-03-15T14:36:03.873Z,1.60
2023-03-15T14:38:37.661Z,2.63
2023-03-15T14:43:41.740Z,2.65
2023-03-15T14:46:10.777Z,2.22
2023-03-15T14:48:41.367Z,4.65
2023-03-15T14:51:15.963Z,1.23
2023-03-15T14:53:45.653Z,3.03
2023-03-15T14:56:15.062Z,2.17
2023-03-15T14:58:44.958Z,2.90
2023-03-15T15:01:16.840Z,1.95
2023-03-15T15:03:50.505Z,3.58
2023-03-15T15:06:18.944Z,3.33
2023-03-15T15:08:48.971Z,2.85
2023-03-15T15:11:17.536Z,3.97
2023-03-15T15:13:45.831Z,4.28
2023-03-15T15:16:14.201Z,5.65
2023-03-15T15:18:45.728Z,3.03
2023-03-15T15:21:20.619Z,2.85
2023-03-15T15:23:58.497Z,2.80
2023-03-15T15:26:31.180Z,6.97
2023-03-15T15:29:00.799Z,4.85
2023-03-15T15:31:33.864Z,2.58
2023-03-15T15:34:02.818Z,2.90
2023-03-15T15:36:35.962Z,2.47
2023-03-15T15:39:07.130Z,3.17
2023-03-15T15:41:51.959Z,2.00
2023-03-15T15:44:22.188Z,2.83
2023-03-15T15:46:50.791Z,2.85
2023-03-15T15:49:19.608Z,3.03
2023-03-15T15:51:50.587Z,5.53
2023-03-15T15:54:22.062Z,4.00
2023-03-15T15:56:53.456Z,3.28
2023-03-15T15:59:22.683Z,6.47
2023-03-15T16:02:03.453Z,4.28
2023-03-15T16:04:33.076Z,3.95
2023-03-15T16:07:05.420Z,2.05
2023-03-15T16:09:37.463Z,3.85
2023-03-15T16:12:24.024Z,4.60
2023-03-15T16:14:54.196Z,3.17
2023-03-15T16:17:25.802Z,4.50
2023-03-15T16:19:55.658Z,4.45
2023-03-15T16:22:27.239Z,4.70
2023-03-15T16:24:58.468Z,4.85
2023-03-15T16:27:29.864Z,8.65
2023-03-15T16:29:58.236Z,6.28
2023-03-15T16:32:41.368Z,3.33
2023-03-15T16:35:15.988Z,4.10
2023-03-15T16:37:47.498Z,4.78
2023-03-15T16:40:21.566Z,4.95
2023-03-15T16:42:50.804Z,3.92
2023-03-15T16:45:19.774Z,3.05
2023-03-15T16:47:48.659Z,2.15
2023-03-15T17:10:44.629Z,6.95
2023-03-15T17:28:35.295Z,3.90
2023-03-15T17:31:23.897Z,7.28
2023-03-15T17:37:40.121Z,3.75
2023-03-15T17:40:19.745Z,2.95
2023-03-15T17:42:48.427Z,5.68
2023-03-15T17:45:22.567Z,5.13
2023-03-15T17:47:52.901Z,3.83
2023-03-15T17:50:22.263Z,4.07
2023-03-15T17:52:55.883Z,7.28
2023-03-15T17:57:55.605Z,4.13
2023-03-15T18:00:28.005Z,4.28
2023-03-15T18:02:56.840Z,4.65
2023-03-15T18:05:28.007Z,3.45
2023-03-15T18:07:58.999Z,4.45
2023-03-15T18:10:33.262Z,3.47
2023-03-15T18:13:01.705Z,2.45
2023-03-15T18:15:35.213Z,4.75
2023-03-15T18:18:06.215Z,4.82
2023-03-15T18:20:34.800Z,6.07
2023-03-15T18:23:03.153Z,5.72
2023-03-15T18:25:35.004Z,7.40
2023-03-15T18:28:06.506Z,4.07
2023-03-15T18:30:37.265Z,5.72
2023-03-15T18:33:06.422Z,5.30
2023-03-15T18:35:36.680Z,4.22
2023-03-15T18:38:05.534Z,3.70
2023-03-15T18:40:35.960Z,4.28
2023-03-15T18:43:05.935Z,3.08
2023-03-15T18:45:37.660Z,2.03
2023-03-15T18:48:06.583Z,6.25
2023-03-15T18:50:35.869Z,2.80
2023-03-15T18:53:06.163Z,3.67
2023-03-15T18:55:34.992Z,3.70
2023-03-15T18:58:03.958Z,3.28
2023-03-15T19:00:37.130Z,4.18
2023-03-15T19:03:06.849Z,5.07
2023-03-15T19:05:36.940Z,3.72
2023-03-15T19:08:05.802Z,6.63
2023-03-15T19:10:34.381Z,3.17
2023-03-15T19:13:04.606Z,6.38
2023-03-15T19:15:33.166Z,3.95
2023-03-15T19:18:03.025Z,4.45
2023-03-15T19:20:31.853Z,7.57
2023-03-15T19:23:00.179Z,7.30
2023-03-15T19:25:29.772Z,6.85
2023-03-15T19:27:58.496Z,2.90
2023-03-15T19:30:27.887Z,7.32
2023-03-15T19:32:56.544Z,7.07
2023-03-15T19:35:27.212Z,6.00
2023-03-15T19:37:56.750Z,7.35
2023-03-15T19:40:25.358Z,8.20
2023-03-15T19:42:53.716Z,7.05
2023-03-15T19:45:22.056Z,6.80
2023-03-15T19:47:50.737Z,8.60
2023-03-15T19:50:19.829Z,11.60
2023-03-15T19:52:50.123Z,11.23
2023-03-15T19:55:20.346Z,12.48
2023-03-15T19:57:49.148Z,15.65
2023-03-15T20:00:20.345Z,14.77
2023-03-15T20:02:49.923Z,15.00
2023-03-15T20:05:20.530Z,10.35
2023-03-15T20:07:52.424Z,8.77
2023-03-15T20:10:21.905Z,13.45
2023-03-15T20:12:52.016Z,12.93
2023-03-15T20:15:21.352Z,14.70
2023-03-15T20:17:49.835Z,9.80
2023-03-15T20:20:19.783Z,4.40
2023-03-15T20:22:50.484Z,6.15
2023-03-15T20:25:20.888Z,8.05
2023-03-15T20:27:50.030Z,6.75
2023-03-15T20:30:20.405Z,7.13
2023-03-15T20:32:49.727Z,7.97
2023-03-15T20:35:20.114Z,6.75
2023-03-15T20:37:53.294Z,6.63
2023-03-15T20:40:23.331Z,10.73
2023-03-15T20:42:53.644Z,6.15
2023-03-15T20:45:22.758Z,7.00
2023-03-15T20:47:52.133Z,6.47
2023-03-15T20:50:21.728Z,6.00
2023-03-15T20:52:52.355Z,7.22
2023-03-15T20:55:21.460Z,6.97
2023-03-15T20:57:50.859Z,8.05
2023-03-15T21:00:20.677Z,9.70
2023-03-15T21:02:49.996Z,5.88
2023-03-15T21:05:19.381Z,7.68
2023-03-15T21:07:48.376Z,7.88
2023-03-15T21:10:19.914Z,9.95
2023-03-15T21:12:48.384Z,11.27
2023-03-15T21:15:18.137Z,7.13
2023-03-15T21:17:49.262Z,8.27
2023-03-15T21:20:18.530Z,9.57
2023-03-15T21:22:47.096Z,8.30
2023-03-15T21:25:16.342Z,5.20
2023-03-15T21:27:46.346Z,9.63
2023-03-15T21:30:15.778Z,10.60
2023-03-15T21:32:45.328Z,10.63
2023-03-15T21:35:14.698Z,11.00
2023-03-15T21:37:43.252Z,11.98
2023-03-15T21:40:13.616Z,12.70
2023-03-15T21:42:44.108Z,15.38
2023-03-15T21:45:14.373Z,16.02
2023-03-15T21:47:47.375Z,12.90
2023-03-15T21:50:16.220Z,11.23
2023-03-15T21:52:45.031Z,11.05
2023-03-15T21:55:16.299Z,10.52
2023-03-15T21:57:46.300Z,8.90
2023-03-15T22:00:18.751Z,7.53
2023-03-15T22:02:47.547Z,8.68
2023-03-15T22:05:15.924Z,9.07
2023-03-15T22:07:44.638Z,12.13
2023-03-15T22:10:14.908Z,12.18
2023-03-15T22:12:43.949Z,10.63
2023-03-15T22:15:13.508Z,6.80
2023-03-15T22:17:45.278Z,11.85
2023-03-15T22:20:16.990Z,18.60
2023-03-15T22:22:45.668Z,14.90
2023-03-15T22:25:14.412Z,9.55
2023-03-15T22:27:43.026Z,9.98
2023-03-15T22:30:13.697Z,7.82
2023-03-15T22:32:44.601Z,7.35
2023-03-15T22:35:14.033Z,9.13
2023-03-15T22:37:42.615Z,8.82
2023-03-15T22:40:14.308Z,11.18
2023-03-15T22:42:43.103Z,5.63
2023-03-15T22:45:11.919Z,11.90
2023-03-15T22:47:40.232Z,7.13
2023-03-15T22:50:12.168Z,8.30
2023-03-15T22:52:40.585Z,8.77
2023-03-15T22:55:10.631Z,7.93
2023-03-15T22:57:38.997Z,7.32
2023-03-15T23:00:22.636Z,8.38
2023-03-15T23:02:51.289Z,6.13
2023-03-15T23:05:21.372Z,7.68
2023-03-15T23:07:49.690Z,7.45
2023-03-15T23:10:18.087Z,7.65
2023-03-15T23:12:46.344Z,4.10
2023-03-15T23:15:15.104Z,8.90
2023-03-15T23:17:46.717Z,9.88
2023-03-15T23:20:16.490Z,7.03
2023-03-15T23:22:46.609Z,6.28
2023-03-15T23:25:16.193Z,6.30
2023-03-15T23:27:44.791Z,7.60
2023-03-15T23:30:14.454Z,6.03
2023-03-15T23:32:43.158Z,9.80
2023-03-15T23:35:13.493Z,7.15
2023-03-15T23:37:42.069Z,7.47
2023-03-15T23:40:15.727Z,7.40
2023-03-15T23:42:45.001Z,5.05
2023-03-15T23:45:15.341Z,8.65
2023-03-15T23:47:44.036Z,4.82
2023-03-15T23:50:13.926Z,8.00
2023-03-15T23:52:42.585Z,6.00
2023-03-15T23:55:12.699Z,4.53
2023-03-15T23:57:42.090Z,7.55
